Time;durP1;ratioP1;P1;durP2;ratioP2;P2;SDS_P1;SDS_P2;PMS_P1;PMS_P2;Temp;Humidity;BMP_temperature;BMP_pressure;BME280_temperature;BME280_humidity;BME280_pressure;Samples;Min_cycle;Max_cycle;Signal;HPM_P1;HPM_P2
2021/10/10 00:02:17;;;;;;;;;;;;;;;0.86;100.00;102515.25;5072199;28;20035;-72
2021/10/10 00:04:45;;;;;;;;;;;;;;;0.85;100.00;102508.97;5072569;28;19924;-72
2021/10/10 00:07:11;;;;;;;;;;;;;;;0.81;100.00;102505.44;5072562;28;20007;-72
2021/10/10 00:09:37;;;;;;;;;;;;;;;0.81;100.00;102497.44;5072401;28;20048;-72
2021/10/10 00:12:04;;;;;;;;;;;;;;;0.75;100.00;102500.19;5072155;28;19924;-72
2021/10/10 00:14:30;;;;;;;;;;;;;;;0.69;100.00;102497.59;5072432;28;19925;-72
2021/10/10 00:16:56;;;;;;;;;;;;;;;0.65;100.00;102493.19;5072054;28;19989;-72
2021/10/10 00:19:23;;;;;;;;;;;;;;;0.60;100.00;102495.03;5071908;28;19971;-72
2021/10/10 00:21:50;;;;;;;;;;;;;;;0.56;100.00;102496.84;5072168;28;19925;-72
2021/10/10 00:24:16;;;;;;;;;;;;;;;0.55;100.00;102497.75;5072092;28;19931;-72
2021/10/10 00:26:43;;;;;;;;;;;;;;;0.54;100.00;102492.44;5071917;28;19970;-72
2021/10/10 00:29:09;;;;;;;;;;;;;;;0.50;100.00;102494.25;5072006;28;19932;-72
2021/10/10 00:31:36;;;;;;;;;;;;;;;0.53;100.00;102487.97;5072120;28;19925;-72
2021/10/10 00:34:02;;;;;;;;;;;;;;;0.53;100.00;102485.31;5071800;28;19986;-72
2021/10/10 00:36:30;;;;;;;;;;;;;;;0.53;100.00;102487.97;5071253;28;20411;-72
2021/10/10 00:38:58;;;;;;;;;;;;;;;0.48;100.00;102480.91;5071938;28;19993;-72
2021/10/10 00:41:24;;;;;;;;;;;;;;;0.43;100.00;102482.75;5071652;28;19932;-72
2021/10/10 00:43:51;;;;;;;;;;;;;;;0.40;100.00;102477.44;5071704;28;20022;-72
2021/10/10 00:46:17;;;;;;;;;;;;;;;0.35;100.00;102481.03;5071402;28;19924;-72
2021/10/10 00:48:43;;;;;;;;;;;;;;;0.26;100.00;102474.03;5071535;28;20370;-72
2021/10/10 00:51:09;;;;;;;;;;;;;;;0.18;100.00;102473.22;5071199;28;19928;-72
2021/10/10 00:53:37;;;;;;;;;;;;;;;0.12;100.00;102471.47;5071358;28;20024;-72
2021/10/10 00:56:05;;;;;;;;;;;;;;;0.05;100.00;102475.97;5071345;28;19935;-72
2021/10/10 00:58:32;;;;;;;;;;;;;;;0.04;100.00;102470.66;5070185;28;19925;-72
2021/10/10 01:00:58;;;;;;;;;;;;;;;0.05;100.00;102470.63;5071591;28;20666;-72
2021/10/10 01:03:25;;;;;;;;;;;;;;;0.06;100.00;102467.06;5071360;28;19960;-72
2021/10/10 01:05:51;;;;;;;;;;;;;;;0.04;100.00;102479.56;5071293;28;19931;-72
2021/10/10 01:08:18;;;;;;;;;;;;;;;-0.01;100.00;102465.38;5070371;28;20018;-72
2021/10/10 01:10:45;;;;;;;;;;;;;;;-0.07;100.00;102468.97;5071137;28;20427;-72
2021/10/10 01:13:14;;;;;;;;;;;;;;;-0.07;100.00;102465.41;5071114;28;19962;-72
2021/10/10 01:15:40;;;;;;;;;;;;;;;-0.11;100.00;102469.88;5070911;28;20463;-72
2021/10/10 01:18:06;;;;;;;;;;;;;;;-0.12;100.00;102464.56;5071328;28;20415;-72
2021/10/10 01:20:43;;;;;;;;;;;;;;;-0.15;100.00;102461.94;5071275;28;19959;-72
2021/10/10 01:23:09;;;;;;;;;;;;;;;-0.25;100.00;102455.81;5070937;28;20380;-72
2021/10/10 01:25:35;;;;;;;;;;;;;;;-0.26;100.00;102457.56;5070746;28;19924;-72
2021/10/10 01:28:02;;;;;;;;;;;;;;;-0.27;100.00;102461.13;5071066;28;20072;-72
2021/10/10 01:30:28;;;;;;;;;;;;;;;-0.32;100.00;102451.41;5071147;28;20348;-72
2021/10/10 01:32:55;;;;;;;;;;;;;;;-0.38;100.00;102447.88;5070494;28;20070;-74
2021/10/10 01:35:21;;;;;;;;;;;;;;;-0.42;100.00;102453.25;5070942;28;19924;-74
2021/10/10 01:37:49;;;;;;;;;;;;;;;-0.48;100.00;102445.28;5070988;28;19959;-74
2021/10/10 01:40:15;;;;;;;;;;;;;;;-0.53;100.00;102446.22;5069979;28;19924;-74
2021/10/10 01:42:42;;;;;;;;;;;;;;;-0.58;100.00;102436.47;5070885;28;19971;-74
2021/10/10 01:45:13;;;;;;;;;;;;;;;-0.64;100.00;102442.75;5071077;28;20019;-74
2021/10/10 01:47:40;;;;;;;;;;;;;;;-0.65;100.00;102440.97;5069675;28;20023;-74
2021/10/10 01:50:06;;;;;;;;;;;;;;;-0.62;100.00;102440.06;5070742;28;19924;-74
2021/10/10 01:52:33;;;;;;;;;;;;;;;-0.58;100.00;102439.16;5070615;28;20336;-74
2021/10/10 01:55:00;;;;;;;;;;;;;;;-0.63;100.00;102439.16;5071436;28;19924;-74
2021/10/10 01:57:27;;;;;;;;;;;;;;;-0.72;100.00;102434.78;5070750;28;19971;-74
2021/10/10 01:59:55;;;;;;;;;;;;;;;-0.78;100.00;102433.94;5071058;28;20311;-74
2021/10/10 02:02:21;;;;;;;;;;;;;;;-0.77;100.00;102436.59;5073380;28;19931;-74
2021/10/10 02:04:47;;;;;;;;;;;;;;;-0.78;100.00;102436.63;5074741;28;19935;-74
2021/10/10 02:07:14;;;;;;;;;;;;;;;-0.81;100.00;102434.84;5074322;28;20371;-74
2021/10/10 02:09:43;;;;;;;;;;;;;;;-0.78;100.00;102431.28;5073313;28;20376;-74
2021/10/10 02:12:11;;;;;;;;;;;;;;;-0.78;100.00;102433.94;5074662;28;20031;-72
2021/10/10 02:14:37;;;;;;;;;;;;;;;-0.87;100.00;102430.47;5074889;28;20003;-77
2021/10/10 02:17:03;;;;;;;;;;;;;;;-0.87;100.00;102422.47;5074656;28;20443;-77
2021/10/10 02:19:29;;;;;;;;;;;;;;;-0.96;100.00;102424.28;5074564;28;20049;-77
2021/10/10 02:21:56;;;;;;;;;;;;;;;-1.05;100.00;102414.56;5074433;28;19928;-73
2021/10/10 02:24:22;;;;;;;;;;;;;;;-1.11;100.00;102420.81;5074471;28;20053;-71
2021/10/10 02:26:49;;;;;;;;;;;;;;;-1.11;100.00;102419.91;5073983;28;19966;-71
2021/10/10 02:29:17;;;;;;;;;;;;;;;-1.14;100.00;102428.81;5074484;28;20307;-71
2021/10/10 02:31:43;;;;;;;;;;;;;;;-1.18;100.00;102413.72;5074164;28;19932;-77
2021/10/10 02:34:10;;;;;;;;;;;;;;;-1.19;100.00;102412.88;5072886;28;20363;-78
2021/10/10 02:36:36;;;;;;;;;;;;;;;-1.21;100.00;102409.31;5074145;28;19931;-71
2021/10/10 02:39:04;;;;;;;;;;;;;;;-1.25;100.00;102409.34;5074191;28;20303;-71
2021/10/10 02:41:30;;;;;;;;;;;;;;;-1.27;100.00;102414.69;5074184;28;19967;-71
2021/10/10 02:43:56;;;;;;;;;;;;;;;-1.27;100.00;102405.78;5073645;28;19931;-71
2021/10/10 02:46:24;;;;;;;;;;;;;;;-1.22;100.00;102402.19;5074202;28;19930;-71
2021/10/10 02:48:50;;;;;;;;;;;;;;;-1.16;100.00;102403.06;5072558;28;20014;-71
2021/10/10 02:51:16;;;;;;;;;;;;;;;-1.12;100.00;102403.06;5073863;28;19930;-71
2021/10/10 02:53:43;;;;;;;;;;;;;;;-1.13;100.00;102400.41;5073759;28;20525;-71
2021/10/10 02:56:09;;;;;;;;;;;;;;;-1.17;100.00;102398.66;5073805;28;19925;-71
2021/10/10 02:58:35;;;;;;;;;;;;;;;-1.23;100.00;102392.47;5074026;28;19963;-71
2021/10/10 03:01:02;;;;;;;;;;;;;;;-1.30;100.00;102393.34;5073460;28;19959;-71
2021/10/10 03:03:29;;;;;;;;;;;;;;;-1.29;100.00;102394.28;5073533;28;19988;-78
2021/10/10 03:05:56;;;;;;;;;;;;;;;-1.32;100.00;102389.84;5073644;28;20015;-72
2021/10/10 03:08:22;;;;;;;;;;;;;;;-1.31;100.00;102396.03;5073500;28;20011;-71
2021/10/10 03:10:48;;;;;;;;;;;;;;;-1.35;100.00;102395.16;5073890;28;19931;-71
2021/10/10 03:13:14;;;;;;;;;;;;;;;-1.40;100.00;102392.53;5072661;28;20447;-74
2021/10/10 03:15:41;;;;;;;;;;;;;;;-1.41;100.00;102396.09;5073368;28;20035;-74
2021/10/10 03:18:07;;;;;;;;;;;;;;;-1.41;100.00;102388.09;5072474;28;20023;-74
2021/10/10 03:20:35;;;;;;;;;;;;;;;-1.37;100.00;102389.84;5073369;28;20019;-74
2021/10/10 03:23:01;;;;;;;;;;;;;;;-1.37;100.00;102388.97;5073383;28;20366;-74
2021/10/10 03:25:27;;;;;;;;;;;;;;;-1.36;100.00;102382.75;5073191;28;19931;-74
2021/10/10 03:27:53;;;;;;;;;;;;;;;-1.43;100.00;102384.56;5073119;28;19947;-74
2021/10/10 03:30:20;;;;;;;;;;;;;;;-1.47;100.00;102380.16;5073343;28;20023;-74
2021/10/10 03:32:46;;;;;;;;;;;;;;;-1.51;100.00;102383.69;5072588;28;20193;-74
2021/10/10 03:35:12;;;;;;;;;;;;;;;-1.54;100.00;102376.63;5073011;28;20106;-74
2021/10/10 03:37:40;;;;;;;;;;;;;;;-1.59;100.00;102381.09;5072411;28;19925;-74
2021/10/10 03:40:08;;;;;;;;;;;;;;;-1.59;100.00;102373.09;5073125;28;20458;-74
2021/10/10 03:42:34;;;;;;;;;;;;;;;-1.63;100.00;102371.34;5072651;28;19974;-74
2021/10/10 03:45:00;;;;;;;;;;;;;;;-1.64;100.00;102372.22;5071930;28;20011;-74
2021/10/10 03:47:26;;;;;;;;;;;;;;;-1.66;100.00;102363.34;5071256;28;19928;-74
2021/10/10 03:49:53;;;;;;;;;;;;;;;-1.70;100.00;102367.81;5072622;28;20368;-74
2021/10/10 03:52:19;;;;;;;;;;;;;;;-1.77;100.00;102368.69;5071577;28;20019;-74
2021/10/10 03:57:27;;;;;;;;;;;;;;;-1.83;100.00;102365.19;5072647;28;19931;-74
2021/10/10 03:59:56;;;;;;;;;;;;;;;-1.84;100.00;102366.97;5072476;28;20011;-74
2021/10/10 04:02:22;;;;;;;;;;;;;;;-1.79;100.00;102362.53;5072561;28;20391;-74
2021/10/10 04:04:50;;;;;;;;;;;;;;;-1.81;100.00;102366.06;5072578;28;20024;-74
2021/10/10 04:07:17;;;;;;;;;;;;;;;-1.79;100.00;102362.53;5071986;28;19935;-74
2021/10/10 04:09:43;;;;;;;;;;;;;;;-1.82;100.00;102362.50;5072473;28;19982;-74
2021/10/10 04:12:11;;;;;;;;;;;;;;;-1.83;100.00;102363.41;5072216;28;19924;-74
2021/10/10 04:14:38;;;;;;;;;;;;;;;-1.82;100.00;102349.19;5072428;28;19930;-74
2021/10/10 04:17:04;;;;;;;;;;;;;;;-1.86;100.00;102355.44;5072536;28;19924;-74
2021/10/10 04:19:31;;;;;;;;;;;;;;;-1.89;100.00;102351.00;5072200;28;20015;-74
2021/10/10 04:21:57;;;;;;;;;;;;;;;-1.89;100.00;102352.78;5071135;28;20285;-74
2021/10/10 04:24:23;;;;;;;;;;;;;;;-1.93;100.00;102351.91;5071374;28;19924;-74
2021/10/10 04:26:50;;;;;;;;;;;;;;;-2.00;100.00;102346.59;5071564;28;20019;-75
2021/10/10 04:29:17;;;;;;;;;;;;;;;-2.09;100.00;102355.50;5072080;28;20483;-72
2021/10/10 04:31:44;;;;;;;;;;;;;;;-2.07;100.00;102351.94;5071027;28;20657;-73
2021/10/10 04:34:11;;;;;;;;;;;;;;;-2.06;100.00;102360.81;5072030;28;19978;-73
2021/10/10 04:36:38;;;;;;;;;;;;;;;-2.06;100.00;102351.06;5071773;28;19994;-73
2021/10/10 04:39:04;;;;;;;;;;;;;;;-2.08;100.00;102351.97;5072040;28;20432;-73
2021/10/10 04:41:30;;;;;;;;;;;;;;;-2.03;100.00;102355.50;5071929;28;19924;-73
2021/10/10 04:43:57;;;;;;;;;;;;;;;-2.07;100.00;102351.94;5071509;28;19928;-73
2021/10/10 04:46:24;;;;;;;;;;;;;;;-2.09;100.00;102347.53;5071533;28;20107;-73
2021/10/10 04:48:50;;;;;;;;;;;;;;;-2.14;100.00;102347.50;5071625;28;19932;-73
2021/10/10 04:51:17;;;;;;;;;;;;;;;-2.14;100.00;102347.50;5071810;28;20041;-73
2021/10/10 04:53:43;;;;;;;;;;;;;;;-2.13;100.00;102348.41;5071212;28;19928;-73
2021/10/10 04:56:09;;;;;;;;;;;;;;;-2.13;100.00;102345.75;5071416;28;20015;-73
2021/10/10 04:58:36;;;;;;;;;;;;;;;-2.10;100.00;102345.75;5071339;28;19967;-73
2021/10/10 05:01:02;;;;;;;;;;;;;;;-2.15;100.00;102342.19;5071404;28;20376;-73
2021/10/10 05:03:30;;;;;;;;;;;;;;;-2.16;100.00;102340.41;5071218;28;20023;-74
2021/10/10 05:05:56;;;;;;;;;;;;;;;-2.14;100.00;102343.97;5071029;28;20019;-73
2021/10/10 05:08:22;;;;;;;;;;;;;;;-2.13;100.00;102343.97;5071265;28;19924;-73
2021/10/10 05:10:49;;;;;;;;;;;;;;;-2.12;100.00;102344.88;5070919;28;19960;-73
2021/10/10 05:13:15;;;;;;;;;;;;;;;-2.16;100.00;102340.41;5071270;28;19971;-73
2021/10/10 05:15:41;;;;;;;;;;;;;;;-2.10;100.00;102345.75;5071189;28;19968;-73
2021/10/10 05:18:07;;;;;;;;;;;;;;;-2.14;100.00;102339.53;5070991;28;20030;-73
2021/10/10 05:20:35;;;;;;;;;;;;;;;-2.14;100.00;102341.31;5071263;28;20042;-73
2021/10/10 05:23:01;;;;;;;;;;;;;;;-2.19;100.00;102334.22;5070912;28;19925;-73
2021/10/10 05:25:28;;;;;;;;;;;;;;;-2.19;100.00;102336.91;5070990;28;20031;-73
2021/10/10 05:27:54;;;;;;;;;;;;;;;-2.17;100.00;102330.69;5074506;28;19935;-73
2021/10/10 05:30:20;;;;;;;;;;;;;;;-2.14;100.00;102338.66;5071109;28;20015;-73
2021/10/10 05:32:47;;;;;;;;;;;;;;;-2.18;100.00;102332.44;5070671;28;20019;-73
2021/10/10 05:35:13;;;;;;;;;;;;;;;-2.14;100.00;102333.34;5077178;28;20007;-73
2021/10/10 05:37:41;;;;;;;;;;;;;;;-2.09;100.00;102340.41;5079905;28;20431;-73
2021/10/10 05:40:08;;;;;;;;;;;;;;;-2.07;100.00;102340.41;5074336;28;20042;-73
2021/10/10 05:42:34;;;;;;;;;;;;;;;-2.04;100.00;102335.97;5070682;28;19925;-73
2021/10/10 05:45:01;;;;;;;;;;;;;;;-1.99;100.00;102338.63;5070443;28;20020;-74
2021/10/10 05:47:27;;;;;;;;;;;;;;;-1.93;100.00;102338.59;5082999;28;20027;-73
2021/10/10 05:49:53;;;;;;;;;;;;;;;-1.86;100.00;102334.13;5070849;28;19925;-74
2021/10/10 05:52:23;;;;;;;;;;;;;;;-1.80;100.00;102338.53;5070626;28;20019;-74
2021/10/10 05:54:51;;;;;;;;;;;;;;;-1.73;100.00;102340.28;5071996;28;19939;-73
2021/10/10 05:57:21;;;;;;;;;;;;;;;-1.61;100.00;102339.38;5070416;28;20019;-74
2021/10/10 05:59:47;;;;;;;;;;;;;;;-1.42;100.00;102337.47;5078197;28;19924;-73
2021/10/10 06:02:13;;;;;;;;;;;;;;;-1.33;100.00;102337.44;5074865;28;19924;-73
2021/10/10 06:04:40;;;;;;;;;;;;;;;-1.23;100.00;102336.50;5087695;28;20011;-73
2021/10/10 06:07:06;;;;;;;;;;;;;;;-1.17;100.00;102334.69;5059634;28;20023;-73
2021/10/10 06:09:33;;;;;;;;;;;;;;;-1.10;100.00;102321.28;5070540;28;19926;-74
2021/10/10 06:12:00;;;;;;;;;;;;;;;-0.99;100.00;102328.31;5081114;28;19971;-74
2021/10/10 06:14:29;;;;;;;;;;;;;;;-0.87;100.00;102329.13;5086104;28;20306;-75
2021/10/10 06:16:55;;;;;;;;;;;;;;;-0.72;100.00;102332.53;5086499;28;19925;-75
2021/10/10 06:19:22;;;;;;;;;;;;;;;-0.62;100.00;102331.56;5084575;28;19970;-74
2021/10/10 06:21:48;;;;;;;;;;;;;;;-0.48;100.00;102336.81;5084625;28;19938;-75
2021/10/10 06:24:14;;;;;;;;;;;;;;;-0.26;100.00;102334.78;5088715;28;20360;-77
2021/10/10 06:26:41;;;;;;;;;;;;;;;0.08;100.00;102336.19;5074688;28;19931;-77
2021/10/10 06:29:09;;;;;;;;;;;;;;;0.54;100.00;102329.41;5081527;28;19951;-77
2021/10/10 06:31:35;;;;;;;;;;;;;;;1.09;100.00;102330.38;5090488;28;19924;-77
2021/10/10 06:34:01;;;;;;;;;;;;;;;1.71;100.00;102329.31;5086635;28;20006;-77
2021/10/10 06:36:27;;;;;;;;;;;;;;;2.40;100.00;102333.28;5088887;28;19959;-76
2021/10/10 06:38:54;;;;;;;;;;;;;;;3.06;100.00;102324.66;5081808;28;19978;-76
2021/10/10 06:41:21;;;;;;;;;;;;;;;3.66;100.00;102318.66;5070118;28;19931;-76
2021/10/10 06:43:47;;;;;;;;;;;;;;;4.16;100.00;102312.78;5071458;28;20129;-76
2021/10/10 06:46:15;;;;;;;;;;;;;;;4.79;100.00;102304.59;5070201;28;19934;-76
2021/10/10 06:48:41;;;;;;;;;;;;;;;5.27;100.00;102311.13;5076525;28;19924;-71
2021/10/10 06:51:07;;;;;;;;;;;;;;;5.79;100.00;102304.88;5090995;28;19974;-72
2021/10/10 06:53:33;;;;;;;;;;;;;;;6.25;100.00;102308.56;5075673;28;19932;-71
2021/10/10 06:56:04;;;;;;;;;;;;;;;6.66;100.00;102294.44;5084363;28;20018;-70
2021/10/10 06:58:30;;;;;;;;;;;;;;;7.02;100.00;102302.00;5080688;28;19925;-71
2021/10/10 07:00:56;;;;;;;;;;;;;;;7.24;100.00;102301.09;5091662;28;20014;-71
2021/10/10 07:03:24;;;;;;;;;;;;;;;7.41;100.00;102301.25;5080055;28;20367;-71
2021/10/10 07:05:50;;;;;;;;;;;;;;;7.48;100.00;102307.25;5082310;28;20027;-70
2021/10/10 07:08:16;;;;;;;;;;;;;;;7.39;100.00;102297.75;5086458;28;20458;-71
2021/10/10 07:10:43;;;;;;;;;;;;;;;7.57;100.00;102300.59;5080161;28;19960;-70
2021/10/10 07:13:09;;;;;;;;;;;;;;;7.61;100.00;102305.78;5084354;28;20027;-70
2021/10/10 07:15:35;;;;;;;;;;;;;;;8.05;100.00;102302.06;5081640;28;20022;-70
2021/10/10 07:18:03;;;;;;;;;;;;;;;8.56;100.00;102293.44;5093739;28;20014;-70
2021/10/10 07:20:44;;;;;;;;;;;;;;;8.86;100.00;102293.78;5084875;28;19931;-71
2021/10/10 07:23:13;;;;;;;;;;;;;;;9.41;100.00;102300.06;5077368;28;19924;-71
2021/10/10 07:25:40;;;;;;;;;;;;;;;9.79;100.00;102294.50;5056833;28;19928;-71
2021/10/10 07:28:06;;;;;;;;;;;;;;;10.16;100.00;102301.53;5073022;28;20023;-71
2021/10/10 07:30:33;;;;;;;;;;;;;;;10.34;100.00;102301.47;5073243;28;20569;-71
2021/10/10 07:32:59;;;;;;;;;;;;;;;10.39;100.00;102299.41;5074720;28;19976;-68
2021/10/10 07:35:25;;;;;;;;;;;;;;;10.51;100.00;102309.59;5074320;28;20298;-68
2021/10/10 07:37:53;;;;;;;;;;;;;;;10.53;100.00;102299.53;5093015;28;19927;-68
2021/10/10 07:40:19;;;;;;;;;;;;;;;10.56;100.00;102298.50;5093172;28;20022;-71
2021/10/10 07:42:45;;;;;;;;;;;;;;;10.62;100.00;102299.97;5092773;28;20377;-71
2021/10/10 07:45:13;;;;;;;;;;;;;;;10.42;100.00;102298.38;5093137;28;20023;-71
2021/10/10 07:47:50;;;;;;;;;;;;;;;10.28;100.00;102290.97;5074882;28;20322;-70
2021/10/10 07:50:17;;;;;;;;;;;;;;;10.36;100.00;102299.59;5084582;28;20023;-78
2021/10/10 07:52:43;;;;;;;;;;;;;;;10.30;100.00;102294.47;5073814;28;19936;-78
2021/10/10 07:55:11;;;;;;;;;;;;;;;10.47;100.00;102297.16;5038399;28;19947;-78
2021/10/10 07:57:37;;;;;;;;;;;;;;;10.75;100.00;102301.03;5080196;28;20011;-78
2021/10/10 08:00:04;;;;;;;;;;;;;;;11.10;100.00;102294.53;5092486;28;19956;-77
2021/10/10 08:02:48;;;;;;;;;;;;;;;11.41;100.00;102300.84;5092687;28;19924;-78
2021/10/10 08:05:14;;;;;;;;;;;;;;;11.27;100.00;102301.69;5092746;28;20018;-77
2021/10/10 08:07:40;;;;;;;;;;;;;;;11.20;100.00;102296.59;5092737;28;20357;-78
2021/10/10 08:10:07;;;;;;;;;;;;;;;11.02;100.00;102292.25;5092044;28;20023;-78
2021/10/10 08:12:35;;;;;;;;;;;;;;;11.32;100.00;102303.16;5072754;28;20023;-78
2021/10/10 08:15:01;;;;;;;;;;;;;;;11.78;100.00;102298.63;5072695;28;20311;-78
2021/10/10 08:17:27;;;;;;;;;;;;;;;12.02;100.00;102299.00;5072362;28;19985;-78
2021/10/10 08:19:54;;;;;;;;;;;;;;;12.27;100.00;102290.16;5072698;28;19956;-78
2021/10/10 08:22:20;;;;;;;;;;;;;;;12.36;98.60;102286.84;5072737;28;20451;-78
2021/10/10 08:24:46;;;;;;;;;;;;;;;12.64;98.13;102290.50;5072698;28;19928;-78
2021/10/10 08:27:12;;;;;;;;;;;;;;;12.80;93.44;102286.75;5072362;28;20023;-78
2021/10/10 08:29:40;;;;;;;;;;;;;;;12.72;91.72;102282.69;5072482;28;20015;-78
2021/10/10 08:32:06;;;;;;;;;;;;;;;12.53;90.49;102282.16;5072075;28;19931;-79
2021/10/10 08:34:36;;;;;;;;;;;;;;;12.71;89.62;102277.38;5071971;28;19924;-76
2021/10/10 08:37:02;;;;;;;;;;;;;;;13.16;88.64;102274.38;5071853;28;20404;-76
2021/10/10 08:39:29;;;;;;;;;;;;;;;13.50;82.94;102278.44;5071410;28;20369;-76
2021/10/10 08:41:57;;;;;;;;;;;;;;;13.41;77.09;102270.88;5072047;28;20364;-69
2021/10/10 08:44:28;;;;;;;;;;;;;;;13.53;78.57;102269.16;5071744;28;20040;-71
2021/10/10 08:47:00;;;;;;;;;;;;;;;13.82;77.26;102278.03;5071881;28;19925;-72
2021/10/10 08:49:27;;;;;;;;;;;;;;;14.22;78.55;102267.00;5071946;28;19924;-69
2021/10/10 08:51:53;;;;;;;;;;;;;;;14.54;70.34;102263.75;5071722;28;20019;-71
2021/10/10 08:54:19;;;;;;;;;;;;;;;14.80;65.33;102260.13;5071631;28;20015;-69
2021/10/10 08:56:46;;;;;;;;;;;;;;;14.85;68.58;102255.19;5071010;28;20015;-69
2021/10/10 08:59:12;;;;;;;;;;;;;;;14.81;63.89;102259.13;5070341;28;20346;-71
2021/10/10 09:01:39;;;;;;;;;;;;;;;14.81;65.28;102260.00;5071179;28;20019;-71
2021/10/10 09:04:06;;;;;;;;;;;;;;;14.60;60.80;102256.09;5071569;28;20441;-69
2021/10/10 09:06:33;;;;;;;;;;;;;;;14.69;61.91;102250.00;5071256;28;20032;-69
2021/10/10 09:09:14;;;;;;;;;;;;;;;14.60;61.23;102254.22;5071283;28;19931;-70
2021/10/10 09:11:42;;;;;;;;;;;;;;;15.25;62.09;102243.94;5069798;28;20284;-70
2021/10/10 09:14:09;;;;;;;;;;;;;;;15.57;62.07;102254.22;5070600;28;19979;-69
2021/10/10 09:16:36;;;;;;;;;;;;;;;15.52;56.97;102253.72;5070984;28;19925;-70
2021/10/10 09:19:25;;;;;;;;;;;;;;;15.56;54.54;102244.28;5071300;28;20383;-69
2021/10/10 09:21:58;;;;;;;;;;;;;;;15.04;55.06;102240.97;5071270;28;20510;-70
2021/10/10 09:24:25;;;;;;;;;;;;;;;15.39;57.22;102238.28;5071144;28;20027;-71
2021/10/10 09:26:52;;;;;;;;;;;;;;;15.43;56.36;102238.88;5070926;28;19928;-70
2021/10/10 09:29:30;;;;;;;;;;;;;;;15.34;53.92;102237.75;5071233;28;20336;-69
2021/10/10 09:32:03;;;;;;;;;;;;;;;14.95;52.99;102233.47;5070746;28;20039;-70
2021/10/10 09:34:30;;;;;;;;;;;;;;;15.31;55.13;102234.38;5071027;28;20015;-69
2021/10/10 09:36:58;;;;;;;;;;;;;;;15.14;54.37;102222.88;5070986;28;20028;-69
2021/10/10 09:39:34;;;;;;;;;;;;;;;15.23;53.97;102224.91;5069610;28;19967;-69
2021/10/10 09:42:02;;;;;;;;;;;;;;;15.27;52.36;102221.94;5071140;28;20031;-69
2021/10/10 09:44:34;;;;;;;;;;;;;;;15.34;52.28;102223.19;5070683;28;20015;-69
2021/10/10 09:47:01;;;;;;;;;;;;;;;15.22;52.22;102223.16;5071013;28;20018;-69
2021/10/10 09:49:29;;;;;;;;;;;;;;;14.82;50.10;102222.63;5070139;28;20011;-69
2021/10/10 09:51:57;;;;;;;;;;;;;;;14.79;50.77;102217.38;5070633;28;20026;-69
2021/10/10 09:54:23;;;;;;;;;;;;;;;14.91;50.52;102216.41;5070820;28;20030;-69
2021/10/10 09:57:03;;;;;;;;;;;;;;;14.71;48.71;102217.94;5070668;28;19929;-69
2021/10/10 09:59:29;;;;;;;;;;;;;;;14.90;48.71;102207.34;5070953;28;20356;-69
2021/10/10 10:01:55;;;;;;;;;;;;;;;15.19;49.07;102226.13;5070533;28;19931;-69
2021/10/10 10:04:21;;;;;;;;;;;;;;;15.54;47.49;102216.16;5070805;28;20023;-77
2021/10/10 10:06:48;;;;;;;;;;;;;;;15.71;47.08;102223.03;5070244;28;20023;-77
2021/10/10 10:09:15;;;;;;;;;;;;;;;15.88;47.47;102218.97;5070660;28;19928;-78
2021/10/10 10:11:42;;;;;;;;;;;;;;;15.66;46.84;102222.50;5052668;28;20024;-77
2021/10/10 10:14:10;;;;;;;;;;;;;;;15.39;46.38;102213.66;5070511;28;19975;-77
2021/10/10 10:16:38;;;;;;;;;;;;;;;15.57;48.70;102211.31;5070479;28;19931;-77
2021/10/10 10:19:06;;;;;;;;;;;;;;;15.74;48.48;102207.22;5053837;28;19952;-68
2021/10/10 10:21:33;;;;;;;;;;;;;;;15.31;45.09;102204.28;5090503;28;19924;-69
2021/10/10 10:24:00;;;;;;;;;;;;;;;14.89;45.56;102213.81;5092776;28;19924;-68
2021/10/10 10:26:30;;;;;;;;;;;;;;;14.97;46.98;102210.50;5094440;28;19924;-68
2021/10/10 10:28:58;;;;;;;;;;;;;;;14.99;48.94;102213.09;5094312;28;20453;-68
2021/10/10 10:31:24;;;;;;;;;;;;;;;14.95;45.62;102217.06;5076199;28;20426;-68
2021/10/10 10:33:54;;;;;;;;;;;;;;;15.09;46.84;102218.75;5093954;28;20015;-69
2021/10/10 10:36:35;;;;;;;;;;;;;;;14.63;46.45;102212.16;5094269;28;19969;-69
2021/10/10 10:39:01;;;;;;;;;;;;;;;14.80;47.53;102209.03;5093855;28;19934;-73
2021/10/10 10:41:48;;;;;;;;;;;;;;;14.80;46.09;102202.72;5094535;28;19963;-68
2021/10/10 10:44:33;;;;;;;;;;;;;;;14.35;46.58;102204.16;5094267;28;19981;-69
2021/10/10 10:47:04;;;;;;;;;;;;;;;14.25;47.99;102210.41;5094326;28;20027;-69
2021/10/10 10:49:49;;;;;;;;;;;;;;;14.31;48.00;102201.75;5094371;28;19989;-69
2021/10/10 10:52:25;;;;;;;;;;;;;;;14.58;46.95;102193.38;5094183;28;19974;-69
2021/10/10 10:54:52;;;;;;;;;;;;;;;14.60;46.83;102196.00;5094042;28;19924;-69
2021/10/10 10:57:30;;;;;;;;;;;;;;;14.66;45.97;102190.09;5094139;28;20011;-69
2021/10/10 11:00:00;;;;;;;;;;;;;;;14.63;45.47;102187.56;5094239;28;19970;-68
2021/10/10 11:02:41;;;;;;;;;;;;;;;14.83;46.63;102194.28;5093869;28;19924;-68
2021/10/10 11:05:07;;;;;;;;;;;;;;;14.99;46.52;102191.22;5093121;28;19966;-71
2021/10/10 11:07:34;;;;;;;;;;;;;;;15.22;45.15;102187.59;5093630;28;20362;-72
2021/10/10 11:10:07;;;;;;;;;;;;;;;14.82;43.10;102184.34;5082398;28;20015;-72
2021/10/10 11:12:35;;;;;;;;;;;;;;;14.92;43.54;102179.03;5073633;28;20334;-72
2021/10/10 11:15:02;;;;;;;;;;;;;;;15.15;44.01;102175.41;5073021;28;19925;-69
2021/10/10 11:17:28;;;;;;;;;;;;;;;15.08;43.53;102165.91;5072035;28;20032;-69
2021/10/10 11:19:54;;;;;;;;;;;;;;;14.71;42.81;102171.47;5073390;28;20408;-69
2021/10/10 11:22:20;;;;;;;;;;;;;;;15.26;45.65;102173.66;5085414;28;20020;-71
2021/10/10 11:24:47;;;;;;;;;;;;;;;15.62;43.38;102164.44;5093751;28;20055;-71
2021/10/10 11:27:14;;;;;;;;;;;;;;;15.36;42.60;102167.34;5093441;28;20402;-71
2021/10/10 11:29:48;;;;;;;;;;;;;;;15.71;42.71;102157.31;5093474;28;20470;-71
2021/10/10 11:32:15;;;;;;;;;;;;;;;15.94;43.06;102158.25;5093136;28;20036;-71
2021/10/10 11:34:41;;;;;;;;;;;;;;;16.32;41.26;102154.19;5092654;28;20023;-71
2021/10/10 11:37:12;;;;;;;;;;;;;;;16.47;41.05;102146.56;5093266;28;20462;-72
2021/10/10 11:39:38;;;;;;;;;;;;;;;16.15;42.28;102144.63;5093212;28;19946;-71
2021/10/10 11:42:06;;;;;;;;;;;;;;;15.99;39.52;102146.91;5093317;28;20024;-71
2021/10/10 11:44:35;;;;;;;;;;;;;;;16.22;39.53;102132.19;5092978;28;19989;-72
2021/10/10 11:47:04;;;;;;;;;;;;;;;16.29;39.48;102139.88;5093049;28;19927;-69
2021/10/10 11:49:37;;;;;;;;;;;;;;;16.71;39.25;102131.78;5092988;28;20375;-69
2021/10/10 11:52:04;;;;;;;;;;;;;;;16.59;38.02;102127.34;5092737;28;19928;-70
2021/10/10 11:54:36;;;;;;;;;;;;;;;16.52;36.97;102125.13;5074497;28;19980;-69
2021/10/10 11:57:02;;;;;;;;;;;;;;;15.79;37.87;102124.72;5076256;28;19928;-69
2021/10/10 11:59:29;;;;;;;;;;;;;;;16.29;40.91;102127.06;5093190;28;19924;-69
2021/10/10 12:01:56;;;;;;;;;;;;;;;16.09;37.70;102117.78;5089928;28;20004;-70
2021/10/10 12:04:24;;;;;;;;;;;;;;;16.56;37.77;102112.91;5091188;28;19931;-69
2021/10/10 12:06:50;;;;;;;;;;;;;;;15.61;38.09;102102.47;5091720;28;19928;-70
2021/10/10 12:09:17;;;;;;;;;;;;;;;15.60;38.35;102094.38;5071640;28;19924;-69
2021/10/10 12:12:03;;;;;;;;;;;;;;;15.70;39.40;102100.84;5072526;28;20011;-69
2021/10/10 12:14:40;;;;;;;;;;;;;;;15.90;39.47;102085.56;5070451;28;20023;-70
2021/10/10 12:17:06;;;;;;;;;;;;;;;16.07;38.37;102084.16;5081555;28;19928;-68
2021/10/10 12:19:42;;;;;;;;;;;;;;;15.92;38.51;102082.69;5072078;28;20011;-69
2021/10/10 12:22:08;;;;;;;;;;;;;;;16.27;38.34;102089.84;5076666;28;19925;-70
2021/10/10 12:24:42;;;;;;;;;;;;;;;16.72;37.57;102079.56;5083351;28;19931;-69
2021/10/10 12:27:08;;;;;;;;;;;;;;;16.66;37.54;102079.22;5071217;28;20418;-68
2021/10/10 12:29:34;;;;;;;;;;;;;;;16.72;37.78;102073.22;5071558;28;19931;-68
2021/10/10 12:32:16;;;;;;;;;;;;;;;16.87;37.82;102058.16;5071775;28;20023;-69
2021/10/10 12:34:44;;;;;;;;;;;;;;;17.09;37.90;102059.06;5071610;28;20064;-69
2021/10/10 12:37:16;;;;;;;;;;;;;;;17.17;36.89;102059.25;5071753;28;19964;-68
2021/10/10 12:39:42;;;;;;;;;;;;;;;17.21;36.54;102057.09;5071754;28;20113;-69